sensor_id;sensor_type;location;lat;lon;timestamp;noise_LAeq;noise_LA_min;noise_LA_max;noise_LA01;noise_LA95
56099;Laerm;44276;49.534;6.378;2023-04-01T00:01:16;42.39;40.33;49.69;;
56099;Laerm;44276;49.534;6.378;2023-04-01T00:03:45;43.07;40.62;53.39;;
56099;Laerm;44276;49.534;6.378;2023-04-01T00:06:18;43.10;40.13;52.48;;
56099;Laerm;44276;49.534;6.378;2023-04-01T00:08:47;42.98;40.23;50.71;;
56099;Laerm;44276;49.534;6.378;2023-04-01T00:11:18;43.36;39.92;54.97;;
56099;Laerm;44276;49.534;6.378;2023-04-01T00:13:49;44.17;40.53;55.32;;
56099;Laerm;44276;49.534;6.378;2023-04-01T00:16:18;44.27;40.33;60.38;;
56099;Laerm;44276;49.534;6.378;2023-04-01T00:18:50;43.87;40.71;57.39;;
56099;Laerm;44276;49.534;6.378;2023-04-01T00:21:20;42.66;40.23;54.00;;
56099;Laerm;44276;49.534;6.378;2023-04-01T00:23:49;44.00;40.53;55.49;;
56099;Laerm;44276;49.534;6.378;2023-04-01T00:26:20;42.91;40.23;53.78;;
56099;Laerm;44276;49.534;6.378;2023-04-01T00:28:50;43.27;40.13;53.73;;
56099;Laerm;44276;49.534;6.378;2023-04-01T00:31:19;42.66;40.03;52.68;;
56099;Laerm;44276;49.534;6.378;2023-04-01T00:33:48;42.75;40.03;52.28;;
56099;Laerm;44276;49.534;6.378;2023-04-01T00:36:20;43.08;40.62;51.83;;
56099;Laerm;44276;49.534;6.378;2023-04-01T00:38:50;42.08;40.27;48.78;;
56099;Laerm;44276;49.534;6.378;2023-04-01T00:41:21;42.17;40.03;49.43;;
56099;Laerm;44276;49.534;6.378;2023-04-01T00:43:51;42.33;40.43;48.76;;
56099;Laerm;44276;49.534;6.378;2023-04-01T00:46:21;42.39;40.43;46.86;;
56099;Laerm;44276;49.534;6.378;2023-04-01T00:48:54;42.43;40.53;50.21;;
56099;Laerm;44276;49.534;6.378;2023-04-01T00:51:27;42.65;40.62;49.98;;
56099;Laerm;44276;49.534;6.378;2023-04-01T00:53:59;42.64;40.43;49.69;;
56099;Laerm;44276;49.534;6.378;2023-04-01T00:56:35;42.59;40.43;49.25;;
56099;Laerm;44276;49.534;6.378;2023-04-01T00:59:11;42.05;40.33;44.54;;
56099;Laerm;44276;49.534;6.378;2023-04-01T01:01:41;44.11;40.53;59.93;;
56099;Laerm;44276;49.534;6.378;2023-04-01T01:04:23;42.63;40.23;54.62;;
56099;Laerm;44276;49.534;6.378;2023-04-01T01:07:00;44.12;40.62;57.59;;
56099;Laerm;44276;49.534;6.378;2023-04-01T01:09:43;42.88;40.71;49.15;;
56099;Laerm;44276;49.534;6.378;2023-04-01T01:12:20;42.84;40.71;50.62;;
56099;Laerm;44276;49.534;6.378;2023-04-01T01:15:02;42.52;40.53;49.85;;
56099;Laerm;44276;49.534;6.378;2023-04-01T01:17:45;42.68;40.43;51.51;;
56099;Laerm;44276;49.534;6.378;2023-04-01T01:23:57;43.77;40.71;58.28;;
56099;Laerm;44276;49.534;6.378;2023-04-01T01:26:56;42.29;40.71;48.71;;
56099;Laerm;44276;49.534;6.378;2023-04-01T01:30:11;42.95;40.33;54.02;;
56099;Laerm;44276;49.534;6.378;2023-04-01T01:33:09;43.30;40.43;54.35;;
56099;Laerm;44276;49.534;6.378;2023-04-01T01:35:46;42.65;40.62;51.19;;
56099;Laerm;44276;49.534;6.378;2023-04-01T01:38:19;44.65;40.71;62.29;;
56099;Laerm;44276;49.534;6.378;2023-04-01T01:40:52;43.95;40.53;56.81;;
56099;Laerm;44276;49.534;6.378;2023-04-01T01:43:25;44.21;40.62;56.50;;
56099;Laerm;44276;49.534;6.378;2023-04-01T01:45:58;44.54;40.89;56.12;;
56099;Laerm;44276;49.534;6.378;2023-04-01T01:48:29;44.40;40.71;58.13;;
56099;Laerm;44276;49.534;6.378;2023-04-01T01:51:00;45.10;40.53;57.63;;
56099;Laerm;44276;49.534;6.378;2023-04-01T01:53:28;44.76;40.89;58.65;;
56099;Laerm;44276;49.534;6.378;2023-04-01T01:55:56;43.04;40.53;50.01;;
56099;Laerm;44276;49.534;6.378;2023-04-01T01:58:29;44.32;40.80;57.16;;
56099;Laerm;44276;49.534;6.378;2023-04-01T02:01:01;43.78;40.62;55.19;;
56099;Laerm;44276;49.534;6.378;2023-04-01T02:03:34;46.80;40.71;62.12;;
56099;Laerm;44276;49.534;6.378;2023-04-01T02:06:08;44.92;40.62;56.46;;
56099;Laerm;44276;49.534;6.378;2023-04-01T02:08:42;44.52;40.89;59.07;;
56099;Laerm;44276;49.534;6.378;2023-04-01T02:11:15;44.87;40.53;59.62;;
56099;Laerm;44276;49.534;6.378;2023-04-01T02:13:52;47.14;40.80;64.41;;
56099;Laerm;44276;49.534;6.378;2023-04-01T02:16:26;45.04;40.62;62.60;;
56099;Laerm;44276;49.534;6.378;2023-04-01T02:18:59;45.18;40.23;57.71;;
56099;Laerm;44276;49.534;6.378;2023-04-01T02:21:32;51.29;40.53;66.27;;
56099;Laerm;44276;49.534;6.378;2023-04-01T02:24:04;46.29;40.43;61.17;;
56099;Laerm;44276;49.534;6.378;2023-04-01T02:26:34;47.69;40.43;60.87;;
56099;Laerm;44276;49.534;6.378;2023-04-01T02:29:05;45.30;40.43;58.12;;
56099;Laerm;44276;49.534;6.378;2023-04-01T02:31:46;47.57;40.62;67.48;;
56099;Laerm;44276;49.534;6.378;2023-04-01T02:34:24;52.58;40.62;68.17;;
56099;Laerm;44276;49.534;6.378;2023-04-01T02:36:58;47.46;40.62;67.19;;
56099;Laerm;44276;49.534;6.378;2023-04-01T02:39:31;45.08;40.33;64.09;;
56099;Laerm;44276;49.534;6.378;2023-04-01T02:42:01;44.05;40.53;56.21;;
56099;Laerm;44276;49.534;6.378;2023-04-01T02:44:30;44.94;39.92;57.11;;
56099;Laerm;44276;49.534;6.378;2023-04-01T02:46:58;45.55;40.43;61.98;;
56099;Laerm;44276;49.534;6.378;2023-04-01T02:49:26;45.47;40.33;63.86;;
56099;Laerm;44276;49.534;6.378;2023-04-01T02:51:55;43.92;40.53;56.08;;
56099;Laerm;44276;49.534;6.378;2023-04-01T02:54:24;43.79;40.23;57.11;;
56099;Laerm;44276;49.534;6.378;2023-04-01T02:56:52;44.14;40.43;55.90;;
56099;Laerm;44276;49.534;6.378;2023-04-01T02:59:20;43.50;40.53;57.65;;
56099;Laerm;44276;49.534;6.378;2023-04-01T03:01:49;44.72;40.62;59.08;;
56099;Laerm;44276;49.534;6.378;2023-04-01T03:04:17;42.53;40.33;50.27;;
56099;Laerm;44276;49.534;6.378;2023-04-01T03:06:45;43.09;40.53;56.71;;
56099;Laerm;44276;49.534;6.378;2023-04-01T03:09:13;43.41;40.62;53.93;;
56099;Laerm;44276;49.534;6.378;2023-04-01T03:11:42;46.30;40.62;60.31;;
56099;Laerm;44276;49.534;6.378;2023-04-01T03:14:10;43.66;40.43;54.60;;
56099;Laerm;44276;49.534;6.378;2023-04-01T03:16:38;43.97;40.43;55.96;;
56099;Laerm;44276;49.534;6.378;2023-04-01T03:19:07;44.89;40.43;57.30;;
56099;Laerm;44276;49.534;6.378;2023-04-01T03:21:35;44.25;40.43;58.42;;
56099;Laerm;44276;49.534;6.378;2023-04-01T03:24:03;44.05;40.18;54.47;;
56099;Laerm;44276;49.534;6.378;2023-04-01T03:26:32;43.86;40.62;55.86;;
56099;Laerm;44276;49.534;6.378;2023-04-01T03:29:01;42.74;40.43;49.57;;
56099;Laerm;44276;49.534;6.378;2023-04-01T03:31:29;42.66;40.43;54.57;;
56099;Laerm;44276;49.534;6.378;2023-04-01T03:33:58;43.81;40.43;59.22;;
56099;Laerm;44276;49.534;6.378;2023-04-01T03:36:26;43.45;40.33;55.17;;
56099;Laerm;44276;49.534;6.378;2023-04-01T03:38:54;42.73;40.43;49.27;;
56099;Laerm;44276;49.534;6.378;2023-04-01T03:41:22;44.09;40.53;57.12;;
56099;Laerm;44276;49.534;6.378;2023-04-01T03:43:50;43.80;40.33;53.66;;
56099;Laerm;44276;49.534;6.378;2023-04-01T03:46:20;43.64;40.53;56.20;;
56099;Laerm;44276;49.534;6.378;2023-04-01T03:48:48;42.95;40.23;54.27;;
56099;Laerm;44276;49.534;6.378;2023-04-01T03:51:16;42.35;40.13;48.39;;
56099;Laerm;44276;49.534;6.378;2023-04-01T03:53:44;42.57;40.36;49.96;;
56099;Laerm;44276;49.534;6.378;2023-04-01T03:56:12;42.21;40.43;47.17;;
56099;Laerm;44276;49.534;6.378;2023-04-01T03:58:41;43.94;40.43;56.20;;
56099;Laerm;44276;49.534;6.378;2023-04-01T04:01:18;44.99;40.53;64.03;;
56099;Laerm;44276;49.534;6.378;2023-04-01T04:03:50;44.21;40.33;58.98;;
56099;Laerm;44276;49.534;6.378;2023-04-01T04:06:19;45.92;40.43;61.93;;
56099;Laerm;44276;49.534;6.378;2023-04-01T04:08:47;45.13;40.36;57.73;;
56099;Laerm;44276;49.534;6.378;2023-04-01T04:11:16;45.11;40.62;59.14;;
56099;Laerm;44276;49.534;6.378;2023-04-01T04:13:44;44.39;40.53;57.60;;
56099;Laerm;44276;49.534;6.378;2023-04-01T04:16:12;43.13;40.43;51.58;;
56099;Laerm;44276;49.534;6.378;2023-04-01T04:18:41;43.11;40.33;53.83;;
56099;Laerm;44276;49.534;6.378;2023-04-01T04:21:14;43.10;40.62;54.20;;
56099;Laerm;44276;49.534;6.378;2023-04-01T04:23:43;43.34;40.62;54.61;;
56099;Laerm;44276;49.534;6.378;2023-04-01T04:26:14;42.62;40.53;50.32;;
56099;Laerm;44276;49.534;6.378;2023-04-01T04:28:42;42.38;40.33;50.60;;
56099;Laerm;44276;49.534;6.378;2023-04-01T04:31:11;42.37;40.33;47.50;;
56099;Laerm;44276;49.534;6.378;2023-04-01T04:33:39;42.58;40.43;52.35;;
56099;Laerm;44276;49.534;6.378;2023-04-01T04:36:08;42.51;40.53;46.62;;
56099;Laerm;44276;49.534;6.378;2023-04-01T04:38:38;42.72;40.43;47.61;;
56099;Laerm;44276;49.534;6.378;2023-04-01T04:41:09;42.91;40.53;50.01;;
56099;Laerm;44276;49.534;6.378;2023-04-01T04:43:40;42.83;40.62;50.49;;
56099;Laerm;44276;49.534;6.378;2023-04-01T04:46:10;43.11;40.43;57.78;;
56099;Laerm;44276;49.534;6.378;2023-04-01T04:48:38;42.08;40.43;45.17;;
56099;Laerm;44276;49.534;6.378;2023-04-01T04:51:07;42.21;40.33;46.91;;
56099;Laerm;44276;49.534;6.378;2023-04-01T04:53:37;42.36;40.33;47.76;;
56099;Laerm;44276;49.534;6.378;2023-04-01T04:56:05;43.42;40.43;56.99;;
56099;Laerm;44276;49.534;6.378;2023-04-01T04:58:34;43.03;40.43;59.54;;
56099;Laerm;44276;49.534;6.378;2023-04-01T05:01:07;42.15;40.13;45.63;;
56099;Laerm;44276;49.534;6.378;2023-04-01T05:03:37;42.38;40.33;49.30;;
56099;Laerm;44276;49.534;6.378;2023-04-01T05:06:07;42.75;40.45;50.92;;
56099;Laerm;44276;49.534;6.378;2023-04-01T05:08:38;42.99;40.71;52.22;;
56099;Laerm;44276;49.534;6.378;2023-04-01T05:11:09;43.75;40.62;58.43;;
56099;Laerm;44276;49.534;6.378;2023-04-01T05:13:40;43.46;40.53;56.25;;
56099;Laerm;44276;49.534;6.378;2023-04-01T05:16:08;43.15;40.23;56.40;;
56099;Laerm;44276;49.534;6.378;2023-04-01T05:18:37;42.31;40.43;50.69;;
56099;Laerm;44276;49.534;6.378;2023-04-01T05:21:08;42.08;40.62;45.77;;
56099;Laerm;44276;49.534;6.378;2023-04-01T05:23:38;42.38;40.23;50.23;;
56099;Laerm;44276;49.534;6.378;2023-04-01T05:26:11;42.85;40.23;53.73;;
56099;Laerm;44276;49.534;6.378;2023-04-01T05:28:40;42.53;40.43;53.86;;
56099;Laerm;44276;49.534;6.378;2023-04-01T05:31:09;42.71;40.53;54.28;;
56099;Laerm;44276;49.534;6.378;2023-04-01T05:33:37;42.38;40.33;47.76;;
56099;Laerm;44276;49.534;6.378;2023-04-01T05:36:08;42.27;40.33;48.26;;
56099;Laerm;44276;49.534;6.378;2023-04-01T05:38:38;42.00;40.23;45.33;;
56099;Laerm;44276;49.534;6.378;2023-04-01T05:41:06;42.17;40.53;46.33;;
56099;Laerm;44276;49.534;6.378;2023-04-01T05:43:36;42.22;40.43;47.59;;
56099;Laerm;44276;49.534;6.378;2023-04-01T05:46:04;42.34;40.33;46.10;;
56099;Laerm;44276;49.534;6.378;2023-04-01T05:48:33;42.28;40.43;45.57;;
56099;Laerm;44276;49.534;6.378;2023-04-01T05:51:02;42.06;40.43;45.33;;
56099;Laerm;44276;49.534;6.378;2023-04-01T05:53:31;42.09;40.43;45.77;;
56099;Laerm;44276;49.534;6.378;2023-04-01T05:56:04;42.56;40.53;50.78;;
56099;Laerm;44276;49.534;6.378;2023-04-01T05:58:32;42.15;40.33;45.42;;
56099;Laerm;44276;49.534;6.378;2023-04-01T06:01:02;42.19;40.43;45.36;;
56099;Laerm;44276;49.534;6.378;2023-04-01T06:03:39;42.57;40.62;53.18;;
56099;Laerm;44276;49.534;6.378;2023-04-01T06:06:14;42.23;40.43;46.33;;
56099;Laerm;44276;49.534;6.378;2023-04-01T06:08:43;42.36;40.53;50.11;;
56099;Laerm;44276;49.534;6.378;2023-04-01T06:11:29;42.86;40.33;50.92;;
56099;Laerm;44276;49.534;6.378;2023-04-01T06:14:21;42.09;40.53;45.65;;
56099;Laerm;44276;49.534;6.378;2023-04-01T06:17:16;42.02;40.53;44.58;;
56099;Laerm;44276;49.534;6.378;2023-04-01T06:19:55;42.35;40.62;51.30;;
56099;Laerm;44276;49.534;6.378;2023-04-01T06:22:47;42.00;39.92;45.36;;
56099;Laerm;44276;49.534;6.378;2023-04-01T06:25:53;42.10;40.53;46.64;;
56099;Laerm;44276;49.534;6.378;2023-04-01T06:32:05;42.01;40.53;44.27;;
56099;Laerm;44276;49.534;6.378;2023-04-01T06:35:03;42.03;40.33;44.07;;
56099;Laerm;44276;49.534;6.378;2023-04-01T06:37:59;42.19;40.53;44.83;;
56099;Laerm;44276;49.534;6.378;2023-04-01T06:43:49;42.32;40.62;47.36;;
56099;Laerm;44276;49.534;6.378;2023-04-01T06:46:36;42.14;40.53;45.48;;
56099;Laerm;44276;49.534;6.378;2023-04-01T06:49:36;42.08;40.62;44.90;;
56099;Laerm;44276;49.534;6.378;2023-04-01T06:52:19;41.96;40.53;43.19;;
56099;Laerm;44276;49.534;6.378;2023-04-01T06:54:59;42.06;40.53;44.47;;
56099;Laerm;44276;49.534;6.378;2023-04-01T06:57:34;42.38;40.33;49.38;;
56099;Laerm;44276;49.534;6.378;2023-04-01T07:00:13;42.07;40.33;44.23;;
56099;Laerm;44276;49.534;6.378;2023-04-01T07:02:48;42.27;40.71;45.89;;
56099;Laerm;44276;49.534;6.378;2023-04-01T07:05:21;42.20;40.80;44.31;;
56099;Laerm;44276;49.534;6.378;2023-04-01T07:07:54;42.32;40.71;48.07;;
56099;Laerm;44276;49.534;6.378;2023-04-01T07:10:35;42.14;40.43;47.06;;
56099;Laerm;44276;49.534;6.378;2023-04-01T07:13:13;42.24;40.71;47.52;;
56099;Laerm;44276;49.534;6.378;2023-04-01T07:15:54;42.04;40.43;44.39;;
56099;Laerm;44276;49.534;6.378;2023-04-01T07:18:34;42.07;40.43;45.20;;
56099;Laerm;44276;49.534;6.378;2023-04-01T07:21:19;42.47;40.53;50.84;;
56099;Laerm;44276;49.534;6.378;2023-04-01T07:23:51;42.14;40.71;45.42;;
56099;Laerm;44276;49.534;6.378;2023-04-01T07:26:24;42.14;40.43;44.31;;
56099;Laerm;44276;49.534;6.378;2023-04-01T07:28:53;42.07;40.43;44.03;;
56099;Laerm;44276;49.534;6.378;2023-04-01T07:31:49;42.06;40.62;46.78;;
56099;Laerm;44276;49.534;6.378;2023-04-01T07:34:27;42.06;40.71;43.29;;
56099;Laerm;44276;49.534;6.378;2023-04-01T07:37:04;42.05;40.53;43.14;;
56099;Laerm;44276;49.534;6.378;2023-04-01T07:39:44;42.22;40.62;44.31;;
56099;Laerm;44276;49.534;6.378;2023-04-01T07:42:27;42.20;40.43;47.40;;
56099;Laerm;44276;49.534;6.378;2023-04-01T07:45:12;42.17;40.80;44.90;;
56099;Laerm;44276;49.534;6.378;2023-04-01T07:48:00;42.19;40.80;44.69;;
56099;Laerm;44276;49.534;6.378;2023-04-01T07:50:41;42.09;40.53;43.24;;
56099;Laerm;44276;49.534;6.378;2023-04-01T07:53:25;42.14;40.62;44.43;;
56099;Laerm;44276;49.534;6.378;2023-04-01T07:56:06;42.21;40.62;44.23;;
56099;Laerm;44276;49.534;6.378;2023-04-01T07:58:53;42.26;40.80;46.69;;
56099;Laerm;44276;49.534;6.378;2023-04-01T08:01:30;42.23;40.80;44.35;;
56099;Laerm;44276;49.534;6.378;2023-04-01T08:04:25;42.22;40.71;44.39;;
56099;Laerm;44276;49.534;6.378;2023-04-01T08:07:08;42.17;40.53;43.54;;
56099;Laerm;44276;49.534;6.378;2023-04-01T08:09:45;42.18;40.80;43.44;;
56099;Laerm;44276;49.534;6.378;2023-04-01T08:12:32;42.15;40.71;43.29;;
56099;Laerm;44276;49.534;6.378;2023-04-01T08:15:15;42.21;40.62;45.30;;
56099;Laerm;44276;49.534;6.378;2023-04-01T08:18:03;42.21;40.80;43.99;;
56099;Laerm;44276;49.534;6.378;2023-04-01T08:20:40;42.36;40.71;44.58;;
56099;Laerm;44276;49.534;6.378;2023-04-01T08:23:16;42.14;40.71;43.58;;
56099;Laerm;44276;49.534;6.378;2023-04-01T08:25:54;42.12;40.71;43.49;;
56099;Laerm;44276;49.534;6.378;2023-04-01T08:28:30;42.14;40.71;43.77;;
56099;Laerm;44276;49.534;6.378;2023-04-01T08:31:05;42.11;40.53;43.49;;
56099;Laerm;44276;49.534;6.378;2023-04-01T08:33:37;42.17;40.62;44.11;;
56099;Laerm;44276;49.534;6.378;2023-04-01T08:36:12;42.15;40.62;43.99;;
56099;Laerm;44276;49.534;6.378;2023-04-01T08:38:50;42.18;40.71;43.90;;
56099;Laerm;44276;49.534;6.378;2023-04-01T08:42:29;42.17;40.13;43.94;;
56099;Laerm;44276;49.534;6.378;2023-04-01T08:45:15;42.41;40.89;46.91;;
56099;Laerm;44276;49.534;6.378;2023-04-01T08:48:17;42.34;40.71;44.73;;
56099;Laerm;44276;49.534;6.378;2023-04-01T08:51:04;42.30;40.62;44.35;;
56099;Laerm;44276;49.534;6.378;2023-04-01T08:54:18;42.24;40.62;45.36;;
56099;Laerm;44276;49.534;6.378;2023-04-01T08:57:00;42.35;40.80;44.65;;
56099;Laerm;44276;49.534;6.378;2023-04-01T08:59:50;42.35;40.62;46.18;;
56099;Laerm;44276;49.534;6.378;2023-04-01T09:02:54;42.39;40.62;46.97;;
56099;Laerm;44276;49.534;6.378;2023-04-01T09:06:00;42.30;40.80;44.76;;
56099;Laerm;44276;49.534;6.378;2023-04-01T09:08:52;43.46;40.98;56.68;;
56099;Laerm;44276;49.534;6.378;2023-04-01T09:11:47;42.92;40.71;55.27;;
56099;Laerm;44276;49.534;6.378;2023-04-01T09:14:50;42.79;40.80;52.61;;
56099;Laerm;44276;49.534;6.378;2023-04-01T09:20:47;42.46;40.98;44.43;;
56099;Laerm;44276;49.534;6.378;2023-04-01T09:23:40;42.71;40.89;53.02;;
56099;Laerm;44276;49.534;6.378;2023-04-01T09:26:41;42.79;41.14;48.02;;
56099;Laerm;44276;49.534;6.378;2023-04-01T09:29:30;42.49;40.89;47.14;;
56099;Laerm;44276;49.534;6.378;2023-04-01T09:32:27;42.43;40.80;45.33;;
56099;Laerm;44276;49.534;6.378;2023-04-01T09:35:21;42.45;41.14;44.58;;
56099;Laerm;44276;49.534;6.378;2023-04-01T09:37:59;42.45;40.43;44.11;;
56099;Laerm;44276;49.534;6.378;2023-04-01T09:40:48;42.92;40.98;53.08;;
56099;Laerm;44276;49.534;6.378;2023-04-01T09:43:26;42.90;41.14;49.71;;
56099;Laerm;44276;49.534;6.378;2023-04-01T09:46:23;42.87;41.14;50.89;;
56099;Laerm;44276;49.534;6.378;2023-04-01T09:49:20;42.91;40.89;50.44;;
56099;Laerm;44276;49.534;6.378;2023-04-01T09:52:12;43.23;41.22;53.37;;
56099;Laerm;44276;49.534;6.378;2023-04-01T09:55:06;43.13;41.14;55.01;;
56099;Laerm;44276;49.534;6.378;2023-04-01T09:58:02;42.74;40.80;46.45;;
56099;Laerm;44276;49.534;6.378;2023-04-01T10:00:59;43.35;41.06;55.90;;
56099;Laerm;44276;49.534;6.378;2023-04-01T10:07:31;43.18;41.06;50.16;;
56099;Laerm;44276;49.534;6.378;2023-04-01T10:10:41;42.44;40.80;44.39;;
56099;Laerm;44276;49.534;6.378;2023-04-01T10:17:31;42.76;40.89;54.43;;
56099;Laerm;44276;49.534;6.378;2023-04-01T10:20:24;44.44;41.06;57.80;;
56099;Laerm;44276;49.534;6.378;2023-04-01T10:23:32;42.78;40.98;50.84;;
56099;Laerm;44276;49.534;6.378;2023-04-01T10:36:37;43.39;41.22;54.27;;
56099;Laerm;44276;49.534;6.378;2023-04-01T10:40:16;42.76;41.14;48.70;;
56099;Laerm;44276;49.534;6.378;2023-04-01T10:43:26;42.67;41.14;46.33;;
56099;Laerm;44276;49.534;6.378;2023-04-01T10:46:54;42.59;40.98;46.02;;
56099;Laerm;44276;49.534;6.378;2023-04-01T10:50:19;43.75;41.06;58.14;;
56099;Laerm;44276;49.534;6.378;2023-04-01T10:53:34;43.02;41.06;53.73;;
56099;Laerm;44276;49.534;6.378;2023-04-01T10:56:40;43.61;41.06;54.88;;
56099;Laerm;44276;49.534;6.378;2023-04-01T10:59:45;43.18;40.98;53.66;;
56099;Laerm;44276;49.534;6.378;2023-04-01T11:02:45;42.98;41.14;49.95;;
56099;Laerm;44276;49.534;6.378;2023-04-01T11:12:57;42.85;41.06;51.08;;
56099;Laerm;44276;49.534;6.378;2023-04-01T11:16:00;42.78;40.62;50.66;;
56099;Laerm;44276;49.534;6.378;2023-04-01T11:19:21;42.49;40.23;49.60;;
56099;Laerm;44276;49.534;6.378;2023-04-01T11:22:48;42.74;41.06;51.17;;
56099;Laerm;44276;49.534;6.378;2023-04-01T11:25:39;43.27;40.98;54.17;;
56099;Laerm;44276;49.534;6.378;2023-04-01T11:31:53;45.63;41.06;57.28;;
56099;Laerm;44276;49.534;6.378;2023-04-01T11:34:44;43.08;41.19;50.46;;
56099;Laerm;44276;49.534;6.378;2023-04-01T11:37:37;43.27;40.89;50.60;;
56099;Laerm;44276;49.534;6.378;2023-04-01T11:40:23;43.15;41.14;49.81;;
56099;Laerm;44276;49.534;6.378;2023-04-01T11:43:01;43.34;41.06;54.49;;
56099;Laerm;44276;49.534;6.378;2023-04-01T11:45:50;44.52;41.22;56.69;;
56099;Laerm;44276;49.534;6.378;2023-04-01T11:48:49;45.56;41.22;60.95;;
56099;Laerm;44276;49.534;6.378;2023-04-01T11:51:43;43.75;41.06;53.92;;
56099;Laerm;44276;49.534;6.378;2023-04-01T11:54:35;43.33;40.89;56.63;;
56099;Laerm;44276;49.534;6.378;2023-04-01T11:57:40;46.53;41.14;61.16;;
56099;Laerm;44276;49.534;6.378;2023-04-01T12:00:52;43.81;40.98;57.89;;
56099;Laerm;44276;49.534;6.378;2023-04-01T12:07:15;43.02;40.71;49.81;;
56099;Laerm;44276;49.534;6.378;2023-04-01T12:09:58;42.37;40.89;46.43;;
56099;Laerm;44276;49.534;6.378;2023-04-01T12:12:42;42.38;40.80;49.75;;
56099;Laerm;44276;49.534;6.378;2023-04-01T12:15:37;44.18;40.89;57.04;;
56099;Laerm;44276;49.534;6.378;2023-04-01T12:18:21;42.59;40.80;49.71;;
56099;Laerm;44276;49.534;6.378;2023-04-01T12:21:01;44.00;41.06;54.47;;
56099;Laerm;44276;49.534;6.378;2023-04-01T12:24:05;43.65;40.89;53.89;;
56099;Laerm;44276;49.534;6.378;2023-04-01T12:26:55;43.75;41.14;55.63;;
56099;Laerm;44276;49.534;6.378;2023-04-01T12:29:59;43.84;40.89;52.70;;
56099;Laerm;44276;49.534;6.378;2023-04-01T12:32:45;43.99;40.43;54.29;;
56099;Laerm;44276;49.534;6.378;2023-04-01T12:35:24;46.68;40.89;62.96;;
56099;Laerm;44276;49.534;6.378;2023-04-01T12:38:07;43.22;40.43;52.75;;
56099;Laerm;44276;49.534;6.378;2023-04-01T12:40:52;44.31;40.71;55.44;;
56099;Laerm;44276;49.534;6.378;2023-04-01T12:44:13;44.67;40.89;58.50;;
56099;Laerm;44276;49.534;6.378;2023-04-01T12:47:21;42.72;40.71;50.17;;
56099;Laerm;44276;49.534;6.378;2023-04-01T12:50:19;43.00;40.71;54.33;;
56099;Laerm;44276;49.534;6.378;2023-04-01T12:53:23;42.57;40.80;47.44;;
56099;Laerm;44276;49.534;6.378;2023-04-01T12:55:56;42.82;40.80;51.73;;
56099;Laerm;44276;49.534;6.378;2023-04-01T12:59:08;42.81;40.89;52.55;;
56099;Laerm;44276;49.534;6.378;2023-04-01T13:02:07;42.67;40.80;48.08;;
56099;Laerm;44276;49.534;6.378;2023-04-01T13:05:24;43.03;40.71;51.49;;
56099;Laerm;44276;49.534;6.378;2023-04-01T13:08:08;43.46;40.80;55.53;;
56099;Laerm;44276;49.534;6.378;2023-04-01T13:10:58;43.63;40.53;57.35;;
56099;Laerm;44276;49.534;6.378;2023-04-01T13:14:10;42.67;40.62;53.84;;
56099;Laerm;44276;49.534;6.378;2023-04-01T13:17:07;42.54;40.43;48.25;;
56099;Laerm;44276;49.534;6.378;2023-04-01T13:19:47;43.08;40.71;53.91;;
56099;Laerm;44276;49.534;6.378;2023-04-01T13:22:54;42.82;40.80;51.89;;
56099;Laerm;44276;49.534;6.378;2023-04-01T13:25:35;42.79;40.71;51.18;;
56099;Laerm;44276;49.534;6.378;2023-04-01T13:28:15;43.24;40.62;52.47;;
56099;Laerm;44276;49.534;6.378;2023-04-01T13:30:55;43.73;40.89;51.62;;
56099;Laerm;44276;49.534;6.378;2023-04-01T13:33:39;44.17;40.53;58.61;;
56099;Laerm;44276;49.534;6.378;2023-04-01T13:36:26;42.62;40.62;48.58;;
56099;Laerm;44276;49.534;6.378;2023-04-01T13:39:17;42.15;40.53;45.77;;
56099;Laerm;44276;49.534;6.378;2023-04-01T13:42:10;42.35;40.71;46.38;;
56099;Laerm;44276;49.534;6.378;2023-04-01T13:44:47;43.53;40.80;52.36;;
56099;Laerm;44276;49.534;6.378;2023-04-01T13:47:51;43.18;40.62;54.55;;
56099;Laerm;44276;49.534;6.378;2023-04-01T13:50:39;43.24;40.71;52.38;;
56099;Laerm;44276;49.534;6.378;2023-04-01T13:57:15;42.60;40.71;51.96;;
56099;Laerm;44276;49.534;6.378;2023-04-01T14:00:10;42.46;40.62;47.42;;
56099;Laerm;44276;49.534;6.378;2023-04-01T14:03:15;42.67;40.80;53.59;;
56099;Laerm;44276;49.534;6.378;2023-04-01T14:05:56;42.46;40.71;50.77;;
56099;Laerm;44276;49.534;6.378;2023-04-01T14:08:47;43.91;40.71;57.43;;
56099;Laerm;44276;49.534;6.378;2023-04-01T14:11:26;43.66;40.89;57.00;;
56099;Laerm;44276;49.534;6.378;2023-04-01T14:14:14;42.47;40.71;51.50;;
56099;Laerm;44276;49.534;6.378;2023-04-01T14:17:23;47.89;40.98;62.97;;
56099;Laerm;44276;49.534;6.378;2023-04-01T14:20:28;45.09;40.98;62.39;;
56099;Laerm;44276;49.534;6.378;2023-04-01T14:23:31;43.43;40.71;55.20;;
56099;Laerm;44276;49.534;6.378;2023-04-01T14:26:50;44.79;40.62;58.32;;
56099;Laerm;44276;49.534;6.378;2023-04-01T14:29:33;43.33;40.63;56.34;;
56099;Laerm;44276;49.534;6.378;2023-04-01T14:32:16;42.64;40.71;47.98;;
56099;Laerm;44276;49.534;6.378;2023-04-01T14:35:11;42.51;40.80;47.98;;
56099;Laerm;44276;49.534;6.378;2023-04-01T14:38:06;43.74;40.62;60.87;;
56099;Laerm;44276;49.534;6.378;2023-04-01T14:41:06;42.63;40.71;49.32;;
56099;Laerm;44276;49.534;6.378;2023-04-01T14:44:08;42.50;40.62;48.96;;
56099;Laerm;44276;49.534;6.378;2023-04-01T14:47:11;42.85;40.71;51.49;;
56099;Laerm;44276;49.534;6.378;2023-04-01T14:49:46;42.73;40.43;51.87;;
56099;Laerm;44276;49.534;6.378;2023-04-01T14:52:25;42.71;40.62;51.48;;
56099;Laerm;44276;49.534;6.378;2023-04-01T14:54:58;42.40;40.71;49.75;;
56099;Laerm;44276;49.534;6.378;2023-04-01T14:57:29;42.68;40.62;47.12;;
56099;Laerm;44276;49.534;6.378;2023-04-01T15:00:09;42.77;40.62;53.46;;
56099;Laerm;44276;49.534;6.378;2023-04-01T15:02:57;42.42;40.53;46.76;;
56099;Laerm;44276;49.534;6.378;2023-04-01T15:05:42;42.14;40.71;43.58;;
56099;Laerm;44276;49.534;6.378;2023-04-01T15:08:21;43.88;40.80;56.90;;
56099;Laerm;44276;49.534;6.378;2023-04-01T15:11:21;44.21;40.89;60.40;;
56099;Laerm;44276;49.534;6.378;2023-04-01T15:17:18;42.54;40.80;47.38;;
56099;Laerm;44276;49.534;6.378;2023-04-01T15:20:12;43.88;40.71;58.60;;
56099;Laerm;44276;49.534;6.378;2023-04-01T15:23:13;42.61;40.45;50.03;;
56099;Laerm;44276;49.534;6.378;2023-04-01T15:28:59;43.41;40.98;55.12;;
56099;Laerm;44276;49.534;6.378;2023-04-01T15:31:42;42.75;40.80;55.08;;
56099;Laerm;44276;49.534;6.378;2023-04-01T15:34:28;42.99;40.89;56.06;;
56099;Laerm;44276;49.534;6.378;2023-04-01T15:37:09;45.01;40.98;59.08;;
56099;Laerm;44276;49.534;6.378;2023-04-01T15:39:54;43.72;40.80;53.86;;
56099;Laerm;44276;49.534;6.378;2023-04-01T15:42:53;43.28;41.06;52.06;;
56099;Laerm;44276;49.534;6.378;2023-04-01T15:45:31;42.38;40.53;46.10;;
56099;Laerm;44276;49.534;6.378;2023-04-01T15:48:17;42.65;40.80;47.65;;
56099;Laerm;44276;49.534;6.378;2023-04-01T15:54:20;42.96;40.80;51.08;;
56099;Laerm;44276;49.534;6.378;2023-04-01T15:57:09;42.84;40.89;50.99;;
56099;Laerm;44276;49.534;6.378;2023-04-01T16:00:24;42.38;40.53;47.42;;
56099;Laerm;44276;49.534;6.378;2023-04-01T16:03:17;44.39;40.71;59.35;;
56099;Laerm;44276;49.534;6.378;2023-04-01T16:06:08;42.77;40.53;51.56;;
56099;Laerm;44276;49.534;6.378;2023-04-01T16:09:13;43.32;40.89;52.85;;